sensor_id;sensor_type;location;lat;lon;timestamp;P1;durP1;ratioP1;P2;durP2;ratioP2
75272;SDS011;63869;52.344;16.928;2022-12-10T00:00:16;55.72;;;20.83;;
75272;SDS011;63869;52.344;16.928;2022-12-10T00:02:41;57.50;;;20.52;;
75272;SDS011;63869;52.344;16.928;2022-12-10T00:05:07;57.03;;;20.65;;
75272;SDS011;63869;52.344;16.928;2022-12-10T00:07:32;55.70;;;20.08;;
75272;SDS011;63869;52.344;16.928;2022-12-10T00:09:57;55.22;;;18.90;;
75272;SDS011;63869;52.344;16.928;2022-12-10T00:12:23;52.35;;;20.60;;
75272;SDS011;63869;52.344;16.928;2022-12-10T00:14:48;54.05;;;18.98;;
75272;SDS011;63869;52.344;16.928;2022-12-10T00:17:13;60.55;;;19.58;;
75272;SDS011;63869;52.344;16.928;2022-12-10T00:19:39;52.53;;;19.48;;
75272;SDS011;63869;52.344;16.928;2022-12-10T00:22:04;54.50;;;19.67;;
75272;SDS011;63869;52.344;16.928;2022-12-10T00:24:29;60.13;;;20.23;;
75272;SDS011;63869;52.344;16.928;2022-12-10T00:26:54;56.42;;;19.52;;
75272;SDS011;63869;52.344;16.928;2022-12-10T00:29:20;53.65;;;20.52;;
75272;SDS011;63869;52.344;16.928;2022-12-10T00:31:45;55.63;;;20.20;;
75272;SDS011;63869;52.344;16.928;2022-12-10T00:34:11;56.80;;;19.70;;
75272;SDS011;63869;52.344;16.928;2022-12-10T00:36:43;49.00;;;18.52;;
75272;SDS011;63869;52.344;16.928;2022-12-10T00:39:11;46.78;;;19.15;;
75272;SDS011;63869;52.344;16.928;2022-12-10T00:41:38;53.13;;;19.00;;
75272;SDS011;63869;52.344;16.928;2022-12-10T00:44:04;47.78;;;18.90;;
75272;SDS011;63869;52.344;16.928;2022-12-10T00:46:30;48.55;;;18.02;;
75272;SDS011;63869;52.344;16.928;2022-12-10T00:48:55;49.65;;;18.70;;
75272;SDS011;63869;52.344;16.928;2022-12-10T00:51:21;53.38;;;18.48;;
75272;SDS011;63869;52.344;16.928;2022-12-10T00:53:49;48.25;;;18.15;;
75272;SDS011;63869;52.344;16.928;2022-12-10T00:56:16;52.05;;;19.05;;
75272;SDS011;63869;52.344;16.928;2022-12-10T00:58:43;52.42;;;18.80;;
75272;SDS011;63869;52.344;16.928;2022-12-10T01:01:14;43.60;;;18.05;;
75272;SDS011;63869;52.344;16.928;2022-12-10T01:03:48;45.70;;;17.80;;
75272;SDS011;63869;52.344;16.928;2022-12-10T01:06:17;47.45;;;18.20;;
75272;SDS011;63869;52.344;16.928;2022-12-10T01:08:44;48.83;;;17.83;;
75272;SDS011;63869;52.344;16.928;2022-12-10T01:11:11;48.72;;;19.00;;
75272;SDS011;63869;52.344;16.928;2022-12-10T01:13:38;51.90;;;17.77;;
75272;SDS011;63869;52.344;16.928;2022-12-10T01:16:04;47.20;;;17.48;;
75272;SDS011;63869;52.344;16.928;2022-12-10T01:18:31;47.13;;;17.70;;
75272;SDS011;63869;52.344;16.928;2022-12-10T01:21:03;46.40;;;18.27;;
75272;SDS011;63869;52.344;16.928;2022-12-10T01:23:33;43.25;;;16.70;;
75272;SDS011;63869;52.344;16.928;2022-12-10T01:26:09;46.22;;;17.73;;
75272;SDS011;63869;52.344;16.928;2022-12-10T01:28:36;48.13;;;17.95;;
75272;SDS011;63869;52.344;16.928;2022-12-10T01:31:06;43.72;;;16.23;;
75272;SDS011;63869;52.344;16.928;2022-12-10T01:33:36;47.17;;;18.85;;
75272;SDS011;63869;52.344;16.928;2022-12-10T01:36:06;45.58;;;17.42;;
75272;SDS011;63869;52.344;16.928;2022-12-10T01:38:36;46.97;;;18.25;;
75272;SDS011;63869;52.344;16.928;2022-12-10T01:41:02;45.63;;;17.48;;
75272;SDS011;63869;52.344;16.928;2022-12-10T01:43:27;39.85;;;16.65;;
75272;SDS011;63869;52.344;16.928;2022-12-10T01:46:12;43.63;;;15.95;;
75272;SDS011;63869;52.344;16.928;2022-12-10T01:48:38;40.97;;;16.55;;
75272;SDS011;63869;52.344;16.928;2022-12-10T01:51:03;38.78;;;15.80;;
75272;SDS011;63869;52.344;16.928;2022-12-10T01:53:28;35.53;;;14.90;;
75272;SDS011;63869;52.344;16.928;2022-12-10T01:55:54;36.85;;;15.63;;
75272;SDS011;63869;52.344;16.928;2022-12-10T01:58:19;40.58;;;15.85;;
75272;SDS011;63869;52.344;16.928;2022-12-10T02:00:46;34.13;;;14.70;;
75272;SDS011;63869;52.344;16.928;2022-12-10T02:03:22;33.55;;;14.38;;
75272;SDS011;63869;52.344;16.928;2022-12-10T02:06:11;35.08;;;13.35;;
75272;SDS011;63869;52.344;16.928;2022-12-10T02:11:58;30.83;;;13.20;;
75272;SDS011;63869;52.344;16.928;2022-12-10T02:17:32;36.10;;;14.38;;
75272;SDS011;63869;52.344;16.928;2022-12-10T02:20:04;33.13;;;13.82;;
75272;SDS011;63869;52.344;16.928;2022-12-10T02:22:38;33.58;;;14.20;;
75272;SDS011;63869;52.344;16.928;2022-12-10T02:25:11;32.60;;;13.80;;
75272;SDS011;63869;52.344;16.928;2022-12-10T02:30:13;36.10;;;14.43;;
75272;SDS011;63869;52.344;16.928;2022-12-10T02:32:40;34.60;;;13.35;;
75272;SDS011;63869;52.344;16.928;2022-12-10T02:35:09;33.90;;;13.68;;
75272;SDS011;63869;52.344;16.928;2022-12-10T02:37:39;32.75;;;13.48;;
75272;SDS011;63869;52.344;16.928;2022-12-10T02:40:11;31.52;;;14.00;;
75272;SDS011;63869;52.344;16.928;2022-12-10T02:42:43;28.58;;;12.65;;
75272;SDS011;63869;52.344;16.928;2022-12-10T02:45:11;32.00;;;12.85;;
75272;SDS011;63869;52.344;16.928;2022-12-10T02:47:37;32.92;;;12.70;;
75272;SDS011;63869;52.344;16.928;2022-12-10T02:50:04;31.15;;;13.13;;
75272;SDS011;63869;52.344;16.928;2022-12-10T02:52:32;30.48;;;13.25;;
75272;SDS011;63869;52.344;16.928;2022-12-10T02:54:58;26.73;;;12.32;;
75272;SDS011;63869;52.344;16.928;2022-12-10T02:57:32;33.38;;;12.68;;
75272;SDS011;63869;52.344;16.928;2022-12-10T03:08:34;29.40;;;12.60;;
75272;SDS011;63869;52.344;16.928;2022-12-10T03:14:11;31.13;;;12.52;;
75272;SDS011;63869;52.344;16.928;2022-12-10T03:16:35;29.38;;;11.68;;
75272;SDS011;63869;52.344;16.928;2022-12-10T03:19:03;30.92;;;12.48;;
75272;SDS011;63869;52.344;16.928;2022-12-10T03:21:31;29.23;;;12.73;;
75272;SDS011;63869;52.344;16.928;2022-12-10T03:23:59;28.25;;;11.43;;
75272;SDS011;63869;52.344;16.928;2022-12-10T03:26:25;26.15;;;12.25;;
75272;SDS011;63869;52.344;16.928;2022-12-10T03:28:53;26.17;;;11.82;;
75272;SDS011;63869;52.344;16.928;2022-12-10T03:31:23;27.40;;;11.98;;
75272;SDS011;63869;52.344;16.928;2022-12-10T03:33:49;31.40;;;11.68;;
75272;SDS011;63869;52.344;16.928;2022-12-10T03:36:14;28.48;;;11.98;;
75272;SDS011;63869;52.344;16.928;2022-12-10T03:38:41;24.65;;;11.65;;
75272;SDS011;63869;52.344;16.928;2022-12-10T03:41:08;29.33;;;12.23;;
75272;SDS011;63869;52.344;16.928;2022-12-10T03:43:33;25.60;;;11.73;;
75272;SDS011;63869;52.344;16.928;2022-12-10T03:45:58;25.80;;;11.32;;
75272;SDS011;63869;52.344;16.928;2022-12-10T03:48:24;26.23;;;12.02;;
75272;SDS011;63869;52.344;16.928;2022-12-10T03:50:49;26.98;;;11.77;;
75272;SDS011;63869;52.344;16.928;2022-12-10T03:53:14;26.00;;;11.43;;
75272;SDS011;63869;52.344;16.928;2022-12-10T03:55:40;29.45;;;11.93;;
75272;SDS011;63869;52.344;16.928;2022-12-10T03:58:05;26.33;;;11.65;;
75272;SDS011;63869;52.344;16.928;2022-12-10T04:00:31;27.58;;;11.30;;
75272;SDS011;63869;52.344;16.928;2022-12-10T04:02:56;22.88;;;10.55;;
75272;SDS011;63869;52.344;16.928;2022-12-10T04:05:21;27.00;;;11.40;;
75272;SDS011;63869;52.344;16.928;2022-12-10T04:07:46;24.52;;;11.60;;
75272;SDS011;63869;52.344;16.928;2022-12-10T04:10:12;24.70;;;11.00;;
75272;SDS011;63869;52.344;16.928;2022-12-10T04:12:37;28.70;;;11.23;;
75272;SDS011;63869;52.344;16.928;2022-12-10T04:15:03;22.38;;;10.52;;
75272;SDS011;63869;52.344;16.928;2022-12-10T04:17:47;28.42;;;11.15;;
75272;SDS011;63869;52.344;16.928;2022-12-10T04:20:12;24.42;;;11.10;;
75272;SDS011;63869;52.344;16.928;2022-12-10T04:22:58;26.52;;;10.73;;
75272;SDS011;63869;52.344;16.928;2022-12-10T04:25:41;23.92;;;10.88;;
75272;SDS011;63869;52.344;16.928;2022-12-10T04:28:36;23.73;;;9.98;;
75272;SDS011;63869;52.344;16.928;2022-12-10T04:31:01;25.48;;;11.15;;
75272;SDS011;63869;52.344;16.928;2022-12-10T04:33:26;25.45;;;11.18;;
75272;SDS011;63869;52.344;16.928;2022-12-10T04:35:52;22.88;;;10.77;;
75272;SDS011;63869;52.344;16.928;2022-12-10T04:38:17;22.90;;;10.70;;
75272;SDS011;63869;52.344;16.928;2022-12-10T04:40:42;26.10;;;10.38;;
75272;SDS011;63869;52.344;16.928;2022-12-10T04:43:07;24.88;;;11.65;;
75272;SDS011;63869;52.344;16.928;2022-12-10T04:45:33;25.42;;;11.10;;
75272;SDS011;63869;52.344;16.928;2022-12-10T04:48:00;24.02;;;10.68;;
75272;SDS011;63869;52.344;16.928;2022-12-10T04:50:25;26.70;;;10.63;;
75272;SDS011;63869;52.344;16.928;2022-12-10T04:52:50;27.17;;;11.20;;
75272;SDS011;63869;52.344;16.928;2022-12-10T04:55:16;24.95;;;11.40;;
75272;SDS011;63869;52.344;16.928;2022-12-10T04:57:42;25.08;;;10.68;;
75272;SDS011;63869;52.344;16.928;2022-12-10T05:00:07;22.55;;;10.32;;
75272;SDS011;63869;52.344;16.928;2022-12-10T05:02:33;23.85;;;10.52;;
75272;SDS011;63869;52.344;16.928;2022-12-10T05:04:58;24.83;;;11.68;;
75272;SDS011;63869;52.344;16.928;2022-12-10T05:07:23;24.08;;;11.30;;
75272;SDS011;63869;52.344;16.928;2022-12-10T05:09:49;25.73;;;11.25;;
75272;SDS011;63869;52.344;16.928;2022-12-10T05:12:14;24.23;;;10.95;;
75272;SDS011;63869;52.344;16.928;2022-12-10T05:14:39;29.42;;;12.07;;
75272;SDS011;63869;52.344;16.928;2022-12-10T05:17:05;27.63;;;11.27;;
75272;SDS011;63869;52.344;16.928;2022-12-10T05:19:30;32.05;;;12.27;;
75272;SDS011;63869;52.344;16.928;2022-12-10T05:21:55;29.95;;;12.63;;
75272;SDS011;63869;52.344;16.928;2022-12-10T05:24:40;32.13;;;13.32;;
75272;SDS011;63869;52.344;16.928;2022-12-10T05:27:05;31.33;;;13.02;;
75272;SDS011;63869;52.344;16.928;2022-12-10T05:29:31;38.70;;;14.50;;
75272;SDS011;63869;52.344;16.928;2022-12-10T05:31:57;41.92;;;14.48;;
75272;SDS011;63869;52.344;16.928;2022-12-10T05:34:22;32.90;;;13.50;;
75272;SDS011;63869;52.344;16.928;2022-12-10T05:36:48;42.55;;;15.55;;
75272;SDS011;63869;52.344;16.928;2022-12-10T05:39:13;33.78;;;13.77;;
75272;SDS011;63869;52.344;16.928;2022-12-10T05:41:39;36.80;;;14.15;;
75272;SDS011;63869;52.344;16.928;2022-12-10T05:44:05;34.03;;;14.38;;
75272;SDS011;63869;52.344;16.928;2022-12-10T05:46:32;28.92;;;13.00;;
75272;SDS011;63869;52.344;16.928;2022-12-10T05:48:59;32.65;;;13.63;;
75272;SDS011;63869;52.344;16.928;2022-12-10T05:51:26;35.03;;;13.90;;
75272;SDS011;63869;52.344;16.928;2022-12-10T05:53:54;30.83;;;12.15;;
75272;SDS011;63869;52.344;16.928;2022-12-10T05:56:21;30.08;;;12.80;;
75272;SDS011;63869;52.344;16.928;2022-12-10T05:58:49;29.13;;;12.40;;
75272;SDS011;63869;52.344;16.928;2022-12-10T06:01:16;33.05;;;13.00;;
75272;SDS011;63869;52.344;16.928;2022-12-10T06:03:46;33.30;;;12.50;;
75272;SDS011;63869;52.344;16.928;2022-12-10T06:06:12;34.60;;;14.07;;
75272;SDS011;63869;52.344;16.928;2022-12-10T06:08:38;27.45;;;13.00;;
75272;SDS011;63869;52.344;16.928;2022-12-10T06:11:04;28.20;;;12.95;;
75272;SDS011;63869;52.344;16.928;2022-12-10T06:13:31;30.38;;;12.52;;
75272;SDS011;63869;52.344;16.928;2022-12-10T06:15:56;33.45;;;13.40;;
75272;SDS011;63869;52.344;16.928;2022-12-10T06:18:22;33.20;;;14.63;;
75272;SDS011;63869;52.344;16.928;2022-12-10T06:20:47;33.67;;;13.77;;
75272;SDS011;63869;52.344;16.928;2022-12-10T06:23:13;30.63;;;13.93;;
75272;SDS011;63869;52.344;16.928;2022-12-10T06:25:38;32.55;;;13.75;;
75272;SDS011;63869;52.344;16.928;2022-12-10T06:28:04;32.03;;;14.05;;
75272;SDS011;63869;52.344;16.928;2022-12-10T06:30:30;33.20;;;13.32;;
75272;SDS011;63869;52.344;16.928;2022-12-10T06:32:55;36.35;;;13.60;;
75272;SDS011;63869;52.344;16.928;2022-12-10T06:35:21;32.78;;;12.90;;
75272;SDS011;63869;52.344;16.928;2022-12-10T06:37:48;33.88;;;12.52;;
75272;SDS011;63869;52.344;16.928;2022-12-10T06:40:14;29.17;;;13.00;;
75272;SDS011;63869;52.344;16.928;2022-12-10T06:42:39;34.92;;;13.68;;
75272;SDS011;63869;52.344;16.928;2022-12-10T06:45:04;34.67;;;13.20;;
75272;SDS011;63869;52.344;16.928;2022-12-10T06:47:30;36.42;;;13.88;;
75272;SDS011;63869;52.344;16.928;2022-12-10T06:49:56;31.73;;;12.45;;
75272;SDS011;63869;52.344;16.928;2022-12-10T06:52:21;36.15;;;14.23;;
75272;SDS011;63869;52.344;16.928;2022-12-10T06:54:46;30.10;;;13.23;;
75272;SDS011;63869;52.344;16.928;2022-12-10T06:57:11;34.17;;;13.35;;
75272;SDS011;63869;52.344;16.928;2022-12-10T06:59:37;32.15;;;13.60;;
75272;SDS011;63869;52.344;16.928;2022-12-10T07:02:02;35.30;;;14.55;;
75272;SDS011;63869;52.344;16.928;2022-12-10T07:04:27;36.80;;;14.15;;
75272;SDS011;63869;52.344;16.928;2022-12-10T07:06:53;33.22;;;13.60;;
75272;SDS011;63869;52.344;16.928;2022-12-10T07:09:18;32.83;;;13.00;;
75272;SDS011;63869;52.344;16.928;2022-12-10T07:11:43;37.92;;;13.68;;
75272;SDS011;63869;52.344;16.928;2022-12-10T07:14:18;36.70;;;13.02;;
75272;SDS011;63869;52.344;16.928;2022-12-10T07:16:44;35.85;;;13.85;;
75272;SDS011;63869;52.344;16.928;2022-12-10T07:19:10;36.08;;;13.85;;
75272;SDS011;63869;52.344;16.928;2022-12-10T07:21:36;35.03;;;12.57;;
75272;SDS011;63869;52.344;16.928;2022-12-10T07:24:04;36.58;;;14.75;;
75272;SDS011;63869;52.344;16.928;2022-12-10T07:26:42;34.10;;;14.25;;
75272;SDS011;63869;52.344;16.928;2022-12-10T07:29:18;34.88;;;13.65;;
75272;SDS011;63869;52.344;16.928;2022-12-10T07:31:45;34.75;;;15.15;;
75272;SDS011;63869;52.344;16.928;2022-12-10T07:34:11;34.05;;;14.07;;
75272;SDS011;63869;52.344;16.928;2022-12-10T07:36:37;35.90;;;13.40;;
75272;SDS011;63869;52.344;16.928;2022-12-10T07:39:04;35.58;;;14.88;;
75272;SDS011;63869;52.344;16.928;2022-12-10T07:41:30;41.08;;;14.55;;
75272;SDS011;63869;52.344;16.928;2022-12-10T07:43:55;38.58;;;15.02;;
75272;SDS011;63869;52.344;16.928;2022-12-10T07:46:25;39.28;;;15.63;;
75272;SDS011;63869;52.344;16.928;2022-12-10T07:48:53;38.85;;;15.35;;
75272;SDS011;63869;52.344;16.928;2022-12-10T07:51:19;43.22;;;15.85;;
75272;SDS011;63869;52.344;16.928;2022-12-10T07:53:45;41.28;;;15.80;;
75272;SDS011;63869;52.344;16.928;2022-12-10T07:56:11;41.75;;;15.82;;
75272;SDS011;63869;52.344;16.928;2022-12-10T07:58:36;42.92;;;16.33;;
75272;SDS011;63869;52.344;16.928;2022-12-10T08:01:06;45.63;;;16.63;;
75272;SDS011;63869;52.344;16.928;2022-12-10T08:03:32;45.15;;;17.17;;
75272;SDS011;63869;52.344;16.928;2022-12-10T08:06:04;57.35;;;20.67;;
75272;SDS011;63869;52.344;16.928;2022-12-10T08:08:34;63.55;;;23.35;;
75272;SDS011;63869;52.344;16.928;2022-12-10T08:11:00;48.08;;;18.27;;
75272;SDS011;63869;52.344;16.928;2022-12-10T08:13:27;58.13;;;21.10;;
75272;SDS011;63869;52.344;16.928;2022-12-10T08:15:53;45.28;;;16.60;;
75272;SDS011;63869;52.344;16.928;2022-12-10T08:18:19;47.33;;;18.05;;
75272;SDS011;63869;52.344;16.928;2022-12-10T08:20:45;48.40;;;17.95;;
75272;SDS011;63869;52.344;16.928;2022-12-10T08:23:10;63.63;;;26.73;;
75272;SDS011;63869;52.344;16.928;2022-12-10T08:25:36;36.30;;;15.35;;
75272;SDS011;63869;52.344;16.928;2022-12-10T08:28:01;35.97;;;15.15;;
75272;SDS011;63869;52.344;16.928;2022-12-10T08:30:28;44.58;;;16.60;;
75272;SDS011;63869;52.344;16.928;2022-12-10T08:32:54;36.65;;;14.75;;
75272;SDS011;63869;52.344;16.928;2022-12-10T08:35:19;37.78;;;14.35;;
75272;SDS011;63869;52.344;16.928;2022-12-10T08:37:45;41.17;;;16.27;;
75272;SDS011;63869;52.344;16.928;2022-12-10T08:40:10;36.03;;;14.55;;
75272;SDS011;63869;52.344;16.928;2022-12-10T08:42:35;41.85;;;16.25;;
75272;SDS011;63869;52.344;16.928;2022-12-10T08:45:01;40.58;;;14.75;;
75272;SDS011;63869;52.344;16.928;2022-12-10T08:47:26;50.40;;;21.13;;
75272;SDS011;63869;52.344;16.928;2022-12-10T08:49:52;39.00;;;14.90;;
75272;SDS011;63869;52.344;16.928;2022-12-10T08:52:17;38.40;;;15.15;;
75272;SDS011;63869;52.344;16.928;2022-12-10T08:54:42;41.03;;;16.35;;
75272;SDS011;63869;52.344;16.928;2022-12-10T08:57:08;41.63;;;16.00;;
75272;SDS011;63869;52.344;16.928;2022-12-10T08:59:33;47.25;;;16.63;;
75272;SDS011;63869;52.344;16.928;2022-12-10T09:01:58;44.10;;;16.30;;
75272;SDS011;63869;52.344;16.928;2022-12-10T09:04:24;49.88;;;18.45;;
75272;SDS011;63869;52.344;16.928;2022-12-10T09:06:49;44.83;;;16.90;;
75272;SDS011;63869;52.344;16.928;2022-12-10T09:09:15;38.65;;;16.40;;
75272;SDS011;63869;52.344;16.928;2022-12-10T09:11:40;41.35;;;17.42;;
75272;SDS011;63869;52.344;16.928;2022-12-10T09:14:06;42.35;;;15.80;;
75272;SDS011;63869;52.344;16.928;2022-12-10T09:16:35;43.38;;;16.77;;
75272;SDS011;63869;52.344;16.928;2022-12-10T09:19:04;50.90;;;17.27;;
75272;SDS011;63869;52.344;16.928;2022-12-10T09:21:30;42.80;;;16.42;;
75272;SDS011;63869;52.344;16.928;2022-12-10T09:23:55;38.00;;;15.77;;
75272;SDS011;63869;52.344;16.928;2022-12-10T09:26:21;38.60;;;15.98;;
75272;SDS011;63869;52.344;16.928;2022-12-10T09:28:47;43.47;;;16.25;;
75272;SDS011;63869;52.344;16.928;2022-12-10T09:31:13;40.35;;;16.30;;
75272;SDS011;63869;52.344;16.928;2022-12-10T09:33:40;40.35;;;17.17;;
75272;SDS011;63869;52.344;16.928;2022-12-10T09:36:07;36.13;;;14.82;;
75272;SDS011;63869;52.344;16.928;2022-12-10T09:38:34;39.60;;;16.27;;
75272;SDS011;63869;52.344;16.928;2022-12-10T09:41:04;37.22;;;15.70;;
75272;SDS011;63869;52.344;16.928;2022-12-10T09:46:10;34.70;;;14.35;;
75272;SDS011;63869;52.344;16.928;2022-12-10T09:48:51;33.97;;;15.13;;
75272;SDS011;63869;52.344;16.928;2022-12-10T09:51:27;36.60;;;14.80;;
75272;SDS011;63869;52.344;16.928;2022-12-10T09:53:56;36.13;;;16.33;;
75272;SDS011;63869;52.344;16.928;2022-12-10T09:56:30;39.75;;;15.45;;
75272;SDS011;63869;52.344;16.928;2022-12-10T09:58:59;36.43;;;15.43;;
75272;SDS011;63869;52.344;16.928;2022-12-10T10:01:28;36.35;;;13.93;;
75272;SDS011;63869;52.344;16.928;2022-12-10T10:03:56;37.08;;;14.90;;
75272;SDS011;63869;52.344;16.928;2022-12-10T10:06:21;37.50;;;14.10;;
75272;SDS011;63869;52.344;16.928;2022-12-10T10:08:51;36.05;;;14.65;;
75272;SDS011;63869;52.344;16.928;2022-12-10T10:11:20;35.15;;;15.05;;
75272;SDS011;63869;52.344;16.928;2022-12-10T10:16:23;39.45;;;17.27;;
75272;SDS011;63869;52.344;16.928;2022-12-10T10:21:30;33.33;;;15.80;;
75272;SDS011;63869;52.344;16.928;2022-12-10T10:24:02;34.88;;;15.10;;
75272;SDS011;63869;52.344;16.928;2022-12-10T10:26:28;33.78;;;14.32;;
75272;SDS011;63869;52.344;16.928;2022-12-10T10:28:55;35.38;;;14.85;;
75272;SDS011;63869;52.344;16.928;2022-12-10T10:31:25;37.00;;;14.65;;
75272;SDS011;63869;52.344;16.928;2022-12-10T10:33:55;33.20;;;13.40;;
75272;SDS011;63869;52.344;16.928;2022-12-10T10:36:23;30.58;;;13.68;;
75272;SDS011;63869;52.344;16.928;2022-12-10T10:41:23;42.25;;;13.70;;
75272;SDS011;63869;52.344;16.928;2022-12-10T10:43:51;35.22;;;14.90;;
75272;SDS011;63869;52.344;16.928;2022-12-10T10:46:25;30.50;;;12.40;;
75272;SDS011;63869;52.344;16.928;2022-12-10T10:48:51;35.20;;;14.00;;
75272;SDS011;63869;52.344;16.928;2022-12-10T10:51:36;37.33;;;14.82;;
75272;SDS011;63869;52.344;16.928;2022-12-10T10:54:07;30.48;;;13.45;;
75272;SDS011;63869;52.344;16.928;2022-12-10T10:56:38;33.15;;;12.57;;
75272;SDS011;63869;52.344;16.928;2022-12-10T11:01:52;30.98;;;12.02;;
75272;SDS011;63869;52.344;16.928;2022-12-10T11:04:38;32.60;;;12.30;;
75272;SDS011;63869;52.344;16.928;2022-12-10T11:07:24;27.65;;;11.82;;
75272;SDS011;63869;52.344;16.928;2022-12-10T11:12:33;28.15;;;12.73;;
75272;SDS011;63869;52.344;16.928;2022-12-10T11:14:58;26.15;;;11.75;;
75272;SDS011;63869;52.344;16.928;2022-12-10T11:17:25;24.55;;;11.95;;
75272;SDS011;63869;52.344;16.928;2022-12-10T11:19:59;25.83;;;10.68;;
75272;SDS011;63869;52.344;16.928;2022-12-10T11:22:28;24.13;;;10.50;;
75272;SDS011;63869;52.344;16.928;2022-12-10T11:24:55;29.48;;;11.95;;
75272;SDS011;63869;52.344;16.928;2022-12-10T11:32:53;23.27;;;10.68;;
75272;SDS011;63869;52.344;16.928;2022-12-10T11:38:21;25.83;;;12.43;;
75272;SDS011;63869;52.344;16.928;2022-12-10T11:40:56;29.23;;;12.73;;
75272;SDS011;63869;52.344;16.928;2022-12-10T11:46:32;28.27;;;11.95;;
75272;SDS011;63869;52.344;16.928;2022-12-10T11:51:40;28.27;;;12.20;;
75272;SDS011;63869;52.344;16.928;2022-12-10T11:54:23;32.90;;;13.32;;
75272;SDS011;63869;52.344;16.928;2022-12-10T11:57:03;27.85;;;11.77;;
75272;SDS011;63869;52.344;16.928;2022-12-10T12:12:43;29.90;;;12.18;;
75272;SDS011;63869;52.344;16.928;2022-12-10T12:15:29;26.58;;;11.25;;
75272;SDS011;63869;52.344;16.928;2022-12-10T12:17:59;28.63;;;12.50;;
75272;SDS011;63869;52.344;16.928;2022-12-10T12:23:36;24.90;;;11.88;;
75272;SDS011;63869;52.344;16.928;2022-12-10T12:26:15;27.65;;;12.43;;
75272;SDS011;63869;52.344;16.928;2022-12-10T12:32:10;29.30;;;12.75;;
75272;SDS011;63869;52.344;16.928;2022-12-10T12:34:46;28.65;;;11.57;;
75272;SDS011;63869;52.344;16.928;2022-12-10T12:37:18;28.58;;;11.73;;
75272;SDS011;63869;52.344;16.928;2022-12-10T12:39:55;26.10;;;10.77;;
75272;SDS011;63869;52.344;16.928;2022-12-10T12:45:14;25.27;;;11.45;;
75272;SDS011;63869;52.344;16.928;2022-12-10T12:50:40;26.60;;;12.00;;
75272;SDS011;63869;52.344;16.928;2022-12-10T12:53:09;24.92;;;10.82;;
75272;SDS011;63869;52.344;16.928;2022-12-10T12:58:33;23.38;;;10.60;;
75272;SDS011;63869;52.344;16.928;2022-12-10T13:03:59;25.02;;;11.70;;
75272;SDS011;63869;52.344;16.928;2022-12-10T13:06:27;26.33;;;11.60;;
75272;SDS011;63869;52.344;16.928;2022-12-10T13:14:36;26.25;;;10.88;;
75272;SDS011;63869;52.344;16.928;2022-12-10T13:17:32;27.95;;;11.82;;
75272;SDS011;63869;52.344;16.928;2022-12-10T13:23:00;25.30;;;10.48;;
75272;SDS011;63869;52.344;16.928;2022-12-10T13:28:25;26.92;;;11.80;;
75272;SDS011;63869;52.344;16.928;2022-12-10T13:36:28;26.15;;;11.55;;
75272;SDS011;63869;52.344;16.928;2022-12-10T13:41:29;23.95;;;11.60;;
75272;SDS011;63869;52.344;16.928;2022-12-10T13:44:33;26.55;;;11.20;;
75272;SDS011;63869;52.344;16.928;2022-12-10T13:49:52;23.33;;;11.10;;
75272;SDS011;63869;52.344;16.928;2022-12-10T13:52:21;27.52;;;12.70;;
75272;SDS011;63869;52.344;16.928;2022-12-10T13:54:58;32.30;;;15.73;;
75272;SDS011;63869;52.344;16.928;2022-12-10T14:00:21;53.92;;;20.67;;
75272;SDS011;63869;52.344;16.928;2022-12-10T14:08:10;25.20;;;10.80;;
75272;SDS011;63869;52.344;16.928;2022-12-10T14:10:40;27.10;;;11.80;;
75272;SDS011;63869;52.344;16.928;2022-12-10T14:13:06;27.08;;;11.88;;
75272;SDS011;63869;52.344;16.928;2022-12-10T14:15:34;30.20;;;12.15;;
75272;SDS011;63869;52.344;16.928;2022-12-10T14:18:02;27.65;;;11.52;;
75272;SDS011;63869;52.344;16.928;2022-12-10T14:20:32;27.90;;;11.45;;
75272;SDS011;63869;52.344;16.928;2022-12-10T14:23:02;26.40;;;11.85;;
75272;SDS011;63869;52.344;16.928;2022-12-10T14:25:48;29.58;;;11.80;;
75272;SDS011;63869;52.344;16.928;2022-12-10T14:28:14;33.05;;;12.25;;
75272;SDS011;63869;52.344;16.928;2022-12-10T14:30:46;27.60;;;11.77;;
75272;SDS011;63869;52.344;16.928;2022-12-10T14:33:14;32.35;;;12.07;;
75272;SDS011;63869;52.344;16.928;2022-12-10T14:35:42;32.00;;;13.00;;
75272;SDS011;63869;52.344;16.928;2022-12-10T14:38:20;30.90;;;13.02;;
75272;SDS011;63869;52.344;16.928;2022-12-10T14:40:57;35.28;;;12.18;;
75272;SDS011;63869;52.344;16.928;2022-12-10T14:43:26;29.75;;;12.82;;
75272;SDS011;63869;52.344;16.928;2022-12-10T14:46:16;28.13;;;11.50;;
75272;SDS011;63869;52.344;16.928;2022-12-10T14:48:50;33.85;;;12.80;;
75272;SDS011;63869;52.344;16.928;2022-12-10T14:51:18;27.83;;;12.15;;
75272;SDS011;63869;52.344;16.928;2022-12-10T14:53:48;25.13;;;11.15;;
75272;SDS011;63869;52.344;16.928;2022-12-10T14:56:18;29.50;;;11.27;;
75272;SDS011;63869;52.344;16.928;2022-12-10T14:58:50;25.42;;;10.77;;
75272;SDS011;63869;52.344;16.928;2022-12-10T15:01:31;27.75;;;9.45;;
75272;SDS011;63869;52.344;16.928;2022-12-10T15:04:00;20.92;;;9.40;;
75272;SDS011;63869;52.344;16.928;2022-12-10T15:06:28;24.55;;;10.32;;
75272;SDS011;63869;52.344;16.928;2022-12-10T15:08:59;22.52;;;9.57;;
75272;SDS011;63869;52.344;16.928;2022-12-10T15:11:25;19.05;;;8.88;;
75272;SDS011;63869;52.344;16.928;2022-12-10T15:13:53;17.17;;;5.90;;
75272;SDS011;63869;52.344;16.928;2022-12-10T15:18:54;24.30;;;9.70;;
75272;SDS011;63869;52.344;16.928;2022-12-10T15:21:23;21.13;;;9.43;;
75272;SDS011;63869;52.344;16.928;2022-12-10T15:23:49;21.30;;;9.60;;
75272;SDS011;63869;52.344;16.928;2022-12-10T15:26:32;19.52;;;7.97;;
75272;SDS011;63869;52.344;16.928;2022-12-10T15:31:55;18.63;;;8.50;;
75272;SDS011;63869;52.344;16.928;2022-12-10T15:34:25;16.33;;;7.90;;
75272;SDS011;63869;52.344;16.928;2022-12-10T15:36:53;19.83;;;8.07;;
75272;SDS011;63869;52.344;16.928;2022-12-10T15:39:26;15.05;;;7.53;;
75272;SDS011;63869;52.344;16.928;2022-12-10T15:41:55;14.00;;;6.95;;
75272;SDS011;63869;52.344;16.928;2022-12-10T15:47:00;12.43;;;6.07;;
75272;SDS011;63869;52.344;16.928;2022-12-10T15:49:33;12.98;;;6.30;;
75272;SDS011;63869;52.344;16.928;2022-12-10T15:51:59;15.32;;;6.78;;
75272;SDS011;63869;52.344;16.928;2022-12-10T15:54:35;14.95;;;6.95;;
75272;SDS011;63869;52.344;16.928;2022-12-10T15:57:12;17.02;;;6.88;;
75272;SDS011;63869;52.344;16.928;2022-12-10T15:59:42;12.98;;;6.18;;
75272;SDS011;63869;52.344;16.928;2022-12-10T16:05:26;16.73;;;7.68;;
75272;SDS011;63869;52.344;16.928;2022-12-10T16:08:23;18.25;;;7.75;;
75272;SDS011;63869;52.344;16.928;2022-12-10T16:10:52;27.13;;;11.07;;
75272;SDS011;63869;52.344;16.928;2022-12-10T16:13:22;47.28;;;17.52;;
75272;SDS011;63869;52.344;16.928;2022-12-10T16:16:11;61.40;;;21.33;;
75272;SDS011;63869;52.344;16.928;2022-12-10T16:18:38;32.25;;;14.35;;
75272;SDS011;63869;52.344;16.928;2022-12-10T16:21:04;28.13;;;11.82;;